createdAt,value
2023-01-20T00:02:20.711Z,73.35
2023-01-20T00:04:49.672Z,73.45
2023-01-20T00:07:16.504Z,73.52
2023-01-20T00:09:43.298Z,73.51
2023-01-20T00:12:10.224Z,74.29
2023-01-20T00:14:37.148Z,73.56
2023-01-20T00:17:04.023Z,73.90
2023-01-20T00:19:30.913Z,74.25
2023-01-20T00:21:58.067Z,74.22
2023-01-20T00:24:25.108Z,74.04
2023-01-20T00:26:52.000Z,74.04
2023-01-20T00:29:18.896Z,74.06
2023-01-20T00:31:45.950Z,73.47
2023-01-20T00:34:12.864Z,73.74
2023-01-20T00:36:39.854Z,73.43
2023-01-20T00:39:06.760Z,73.34
2023-01-20T00:41:33.750Z,73.00
2023-01-20T00:44:00.725Z,73.25
2023-01-20T00:46:28.242Z,73.13
2023-01-20T00:48:55.194Z,73.11
2023-01-20T00:51:22.153Z,72.44
2023-01-20T00:53:49.013Z,72.96
2023-01-20T00:56:16.029Z,72.85
2023-01-20T00:58:44.661Z,72.84
2023-01-20T01:01:12.563Z,72.45
2023-01-20T01:03:39.631Z,72.48
2023-01-20T01:06:13.322Z,72.71
2023-01-20T01:08:40.848Z,72.09
2023-01-20T01:11:08.205Z,71.82
2023-01-20T01:13:36.061Z,71.72
2023-01-20T01:16:03.394Z,71.24
2023-01-20T01:18:30.408Z,71.03
2023-01-20T01:20:57.836Z,71.29
2023-01-20T01:23:24.760Z,71.46
2023-01-20T01:25:51.679Z,71.08
2023-01-20T01:28:18.682Z,70.94
2023-01-20T01:30:45.656Z,71.09
2023-01-20T01:33:12.600Z,71.33
2023-01-20T01:35:39.576Z,70.64
2023-01-20T01:38:06.458Z,70.48
2023-01-20T01:40:34.497Z,70.52
2023-01-20T01:43:01.539Z,69.98
2023-01-20T01:45:30.800Z,70.33
2023-01-20T01:48:09.751Z,70.11
2023-01-20T01:50:44.527Z,70.04
2023-01-20T01:53:13.508Z,70.34
2023-01-20T01:55:46.179Z,70.39
2023-01-20T01:58:17.067Z,70.55
2023-01-20T02:00:45.167Z,71.12
2023-01-20T02:03:13.065Z,71.04
2023-01-20T02:05:41.503Z,71.09
2023-01-20T02:08:08.883Z,70.74
2023-01-20T02:10:35.752Z,71.39
2023-01-20T02:13:03.338Z,70.94
2023-01-20T02:16:02.314Z,71.00
2023-01-20T02:18:43.741Z,71.22
2023-01-20T02:21:44.090Z,71.27
2023-01-20T02:24:49.727Z,71.52
2023-01-20T02:27:35.019Z,72.13
2023-01-20T02:30:28.939Z,71.63
2023-01-20T02:33:28.238Z,71.29
2023-01-20T02:36:10.508Z,71.63
2023-01-20T02:38:46.839Z,71.86
2023-01-20T02:41:32.207Z,71.85
2023-01-20T02:44:12.931Z,71.58
2023-01-20T02:47:06.331Z,71.74
2023-01-20T02:49:39.945Z,71.67
2023-01-20T02:52:13.079Z,71.13
2023-01-20T02:54:44.787Z,71.26
2023-01-20T02:57:15.816Z,71.16
2023-01-20T02:59:46.556Z,71.37
2023-01-20T03:02:21.190Z,71.32
2023-01-20T03:04:58.896Z,71.66
2023-01-20T03:07:29.145Z,71.35
2023-01-20T03:09:58.391Z,71.46
2023-01-20T03:12:31.443Z,71.45
2023-01-20T03:14:58.483Z,71.33
2023-01-20T03:17:25.410Z,70.98
2023-01-20T03:19:52.324Z,71.43
2023-01-20T03:22:19.395Z,71.49
2023-01-20T03:24:48.934Z,71.09
2023-01-20T03:27:16.035Z,71.91
2023-01-20T03:29:42.998Z,71.97
2023-01-20T03:32:11.855Z,71.91
2023-01-20T03:34:41.314Z,72.23
2023-01-20T03:37:10.736Z,72.67
2023-01-20T03:39:39.975Z,72.82
2023-01-20T03:42:25.417Z,73.40
2023-01-20T03:45:11.952Z,73.66
2023-01-20T03:47:58.730Z,74.35
2023-01-20T03:50:55.680Z,74.47
2023-01-20T03:53:49.082Z,74.81
2023-01-20T03:56:46.076Z,74.62
2023-01-20T03:59:14.707Z,74.76
2023-01-20T04:01:44.642Z,75.12
2023-01-20T04:04:16.656Z,75.72
2023-01-20T04:06:45.833Z,75.91
2023-01-20T04:09:19.555Z,76.25
2023-01-20T04:11:46.698Z,75.91
2023-01-20T04:14:13.590Z,76.05
2023-01-20T04:16:44.688Z,75.65
2023-01-20T04:19:11.673Z,75.24
2023-01-20T04:21:48.483Z,74.92
2023-01-20T04:24:29.454Z,74.26
2023-01-20T04:26:56.356Z,73.64
2023-01-20T04:29:23.242Z,73.61
2023-01-20T04:31:50.375Z,73.28
2023-01-20T04:34:17.319Z,73.52
2023-01-20T04:36:44.193Z,73.37
2023-01-20T04:39:11.110Z,73.16
2023-01-20T04:41:38.003Z,73.42
2023-01-20T04:44:21.613Z,72.95
2023-01-20T04:46:48.827Z,73.02
2023-01-20T04:49:16.110Z,73.63
2023-01-20T04:51:43.091Z,73.90
2023-01-20T04:54:11.448Z,73.96
2023-01-20T04:56:38.674Z,74.32
2023-01-20T04:59:05.643Z,74.62
2023-01-20T05:01:32.768Z,75.15
2023-01-20T05:03:59.676Z,75.22
2023-01-20T05:06:28.125Z,75.47
2023-01-20T05:08:55.706Z,75.52
2023-01-20T05:11:22.971Z,76.11
2023-01-20T05:13:49.853Z,76.14
2023-01-20T05:16:23.226Z,76.40
2023-01-20T05:18:50.445Z,77.08
2023-01-20T05:21:17.447Z,77.37
2023-01-20T05:23:44.331Z,77.50
2023-01-20T05:26:11.569Z,77.51
2023-01-20T05:28:38.513Z,77.99
2023-01-20T05:31:05.512Z,77.99
2023-01-20T05:33:32.556Z,77.68
2023-01-20T05:35:59.661Z,77.89
2023-01-20T05:38:26.528Z,78.01
2023-01-20T05:41:00.090Z,77.18
2023-01-20T05:43:27.229Z,77.38
2023-01-20T05:45:55.215Z,76.62
2023-01-20T05:48:22.200Z,76.31
2023-01-20T05:50:49.508Z,75.98
2023-01-20T05:53:17.218Z,76.62
2023-01-20T05:55:44.773Z,77.32
2023-01-20T05:58:12.066Z,77.16
2023-01-20T06:00:39.363Z,77.21
2023-01-20T06:03:06.282Z,77.27
2023-01-20T06:05:33.424Z,77.14
2023-01-20T06:08:00.614Z,77.05
2023-01-20T06:10:30.409Z,77.45
2023-01-20T06:12:57.408Z,78.63
2023-01-20T06:15:25.461Z,78.65
2023-01-20T06:17:55.524Z,79.41
2023-01-20T06:20:22.874Z,80.01
2023-01-20T06:22:49.765Z,80.10
2023-01-20T06:25:17.321Z,80.39
2023-01-20T06:27:44.423Z,80.52
2023-01-20T06:30:11.841Z,80.87
2023-01-20T06:32:38.659Z,80.35
2023-01-20T06:35:06.398Z,80.38
2023-01-20T06:37:33.267Z,81.21
2023-01-20T06:40:00.149Z,81.23
2023-01-20T06:42:27.050Z,81.21
2023-01-20T06:44:53.872Z,81.26
2023-01-20T06:47:20.869Z,81.12
2023-01-20T06:49:47.779Z,81.32
2023-01-20T06:52:14.758Z,81.90
2023-01-20T06:54:41.578Z,81.09
2023-01-20T06:57:09.190Z,81.29
2023-01-20T06:59:36.078Z,81.65
2023-01-20T07:02:03.026Z,81.32
2023-01-20T07:04:29.963Z,81.40
2023-01-20T07:06:56.808Z,81.80
2023-01-20T07:09:23.930Z,81.65
2023-01-20T07:11:50.794Z,80.96
2023-01-20T07:14:17.702Z,80.46
2023-01-20T07:16:44.653Z,80.79
2023-01-20T07:19:12.242Z,80.62
2023-01-20T07:21:39.282Z,80.70
2023-01-20T07:24:06.584Z,80.71
2023-01-20T07:26:33.780Z,81.18
2023-01-20T07:29:01.027Z,80.47
2023-01-20T07:31:31.360Z,80.20
2023-01-20T07:33:58.780Z,79.31
2023-01-20T07:36:26.438Z,80.05
2023-01-20T07:38:53.866Z,80.20
2023-01-20T07:41:21.747Z,79.87
2023-01-20T07:43:51.792Z,79.80
2023-01-20T07:46:19.951Z,78.98
2023-01-20T07:48:46.901Z,78.78
2023-01-20T07:51:19.003Z,78.35
2023-01-20T07:53:48.256Z,78.08
2023-01-20T07:56:21.236Z,77.55
2023-01-20T07:58:50.680Z,76.71
2023-01-20T08:01:23.938Z,75.51
2023-01-20T08:03:51.997Z,74.89
2023-01-20T08:06:21.113Z,73.15
2023-01-20T08:08:48.975Z,71.96
2023-01-20T08:11:17.953Z,72.18
2023-01-20T08:13:45.659Z,71.43
2023-01-20T08:16:15.449Z,69.43
2023-01-20T08:18:43.430Z,67.06
2023-01-20T08:21:23.912Z,65.21
2023-01-20T08:23:51.301Z,63.84
2023-01-20T08:26:19.606Z,63.43
2023-01-20T08:28:47.662Z,62.82
2023-01-20T08:31:18.274Z,60.91
2023-01-20T08:33:46.829Z,60.70
2023-01-20T08:36:18.630Z,62.13
2023-01-20T08:38:46.839Z,61.27
2023-01-20T08:41:36.005Z,61.52
2023-01-20T08:44:05.376Z,60.79
2023-01-20T08:46:33.146Z,61.74
2023-01-20T08:49:00.332Z,61.69
2023-01-20T08:51:32.920Z,61.99
2023-01-20T08:54:01.727Z,62.02
2023-01-20T08:56:30.398Z,62.18
2023-01-20T08:58:58.662Z,62.45
2023-01-20T09:01:31.810Z,61.37
2023-01-20T09:04:05.850Z,59.89
2023-01-20T09:06:50.467Z,59.40
2023-01-20T09:09:20.597Z,60.15
2023-01-20T09:11:51.641Z,59.87
2023-01-20T09:14:23.629Z,60.32
2023-01-20T09:16:51.796Z,61.04
2023-01-20T09:19:18.758Z,61.71
2023-01-20T09:21:46.010Z,61.49
2023-01-20T09:24:13.015Z,61.53
2023-01-20T09:26:41.739Z,62.61
2023-01-20T09:29:13.815Z,61.09
2023-01-20T09:31:46.648Z,62.33
2023-01-20T09:34:19.536Z,62.89
2023-01-20T09:36:54.254Z,62.66
2023-01-20T09:39:40.172Z,62.57
2023-01-20T09:42:41.949Z,62.66
2023-01-20T09:45:22.849Z,62.37
2023-01-20T09:47:50.573Z,63.32
2023-01-20T09:51:13.351Z,63.26
2023-01-20T09:54:07.198Z,64.28
2023-01-20T09:56:40.583Z,65.21
2023-01-20T09:59:16.099Z,65.71
2023-01-20T10:01:47.685Z,66.04
2023-01-20T10:04:25.479Z,65.64
2023-01-20T10:06:57.593Z,66.49
2023-01-20T10:09:50.209Z,66.46
2023-01-20T10:12:28.571Z,65.99
2023-01-20T10:15:17.886Z,65.87
2023-01-20T10:18:00.350Z,66.66
2023-01-20T10:20:35.727Z,65.21
2023-01-20T10:23:05.748Z,65.90
2023-01-20T10:25:50.318Z,66.89
2023-01-20T10:28:28.859Z,66.30
2023-01-20T10:31:04.281Z,65.40
2023-01-20T10:33:39.098Z,66.06
2023-01-20T10:36:14.857Z,65.42
2023-01-20T10:38:55.995Z,63.92
2023-01-20T10:41:35.084Z,64.33
2023-01-20T10:44:06.271Z,63.51
2023-01-20T10:47:06.911Z,63.30
2023-01-20T10:50:06.176Z,63.88
2023-01-20T10:52:42.777Z,63.76
2023-01-20T10:55:43.297Z,64.06
2023-01-20T10:58:32.074Z,64.42
2023-01-20T11:01:04.336Z,65.34
2023-01-20T11:03:43.578Z,64.92
2023-01-20T11:06:19.553Z,64.56
2023-01-20T11:08:47.098Z,65.33
2023-01-20T11:11:19.606Z,66.09
2023-01-20T11:13:47.008Z,66.61
2023-01-20T11:16:23.179Z,66.34
2023-01-20T11:19:00.401Z,67.50
2023-01-20T11:21:31.205Z,67.42
2023-01-20T11:23:59.622Z,66.81
2023-01-20T11:26:35.612Z,67.75
2023-01-20T11:29:10.042Z,67.25
2023-01-20T11:31:44.591Z,69.84
2023-01-20T11:34:33.442Z,70.56
2023-01-20T11:37:03.287Z,70.27
2023-01-20T11:39:50.777Z,69.37
2023-01-20T11:42:26.014Z,68.75
2023-01-20T11:45:20.674Z,67.84
2023-01-20T11:48:16.325Z,65.15
2023-01-20T11:50:57.590Z,65.54
2023-01-20T11:53:26.784Z,66.48
2023-01-20T11:56:02.200Z,66.70
2023-01-20T11:58:47.749Z,66.54
2023-01-20T12:01:25.607Z,68.62
2023-01-20T12:03:59.869Z,69.21
2023-01-20T12:06:49.085Z,71.07
2023-01-20T12:09:20.140Z,73.93
2023-01-20T12:11:53.754Z,74.24
2023-01-20T12:14:42.322Z,74.95
2023-01-20T12:17:15.812Z,74.38
2023-01-20T12:20:49.166Z,74.05
2023-01-20T12:23:48.374Z,74.03
2023-01-20T12:26:18.199Z,74.47
2023-01-20T12:28:58.566Z,74.40
2023-01-20T12:31:25.743Z,75.26
2023-01-20T12:34:05.241Z,75.26
2023-01-20T12:36:49.747Z,74.69
2023-01-20T12:39:55.710Z,74.82
2023-01-20T12:42:35.322Z,74.23
2023-01-20T12:45:28.937Z,73.22
2023-01-20T12:48:17.605Z,73.95
2023-01-20T12:50:53.214Z,75.52
2023-01-20T12:53:46.673Z,78.24
2023-01-20T12:56:42.522Z,81.68
2023-01-20T12:59:30.192Z,82.92
2023-01-20T13:02:38.792Z,83.49
2023-01-20T13:05:24.649Z,82.99
2023-01-20T13:08:17.537Z,84.66
2023-01-20T13:10:51.557Z,84.40
2023-01-20T13:13:56.929Z,84.72
2023-01-20T13:16:30.368Z,84.57
2023-01-20T13:19:05.868Z,84.02
2023-01-20T13:21:34.590Z,83.50
2023-01-20T13:24:04.846Z,84.27
2023-01-20T13:26:33.027Z,82.82
2023-01-20T13:29:00.730Z,82.72
2023-01-20T13:31:36.853Z,82.81
2023-01-20T13:34:22.237Z,81.94
2023-01-20T13:37:23.605Z,82.50
2023-01-20T13:39:51.660Z,83.28
2023-01-20T13:42:36.487Z,83.87
2023-01-20T13:45:12.869Z,84.46
2023-01-20T13:47:58.813Z,85.08
2023-01-20T13:50:36.321Z,84.49
2023-01-20T13:53:11.406Z,85.09
2023-01-20T13:55:43.977Z,85.82
2023-01-20T13:58:22.266Z,84.83
2023-01-20T14:00:52.615Z,84.95
2023-01-20T14:03:20.270Z,85.13
2023-01-20T14:06:01.790Z,84.64
2023-01-20T14:08:44.847Z,85.34
2023-01-20T14:11:14.668Z,85.27
2023-01-20T14:13:50.822Z,85.84
2023-01-20T14:16:25.710Z,85.71
2023-01-20T14:18:55.219Z,85.53
2023-01-20T14:21:25.260Z,85.61
2023-01-20T14:23:52.440Z,86.40
2023-01-20T14:26:30.766Z,85.95
2023-01-20T14:29:01.000Z,86.50
2023-01-20T14:31:36.739Z,85.87
2023-01-20T14:34:18.901Z,85.36
2023-01-20T14:36:46.685Z,85.54
2023-01-20T14:39:22.891Z,85.00
2023-01-20T14:41:51.534Z,85.52
2023-01-20T14:44:32.680Z,85.27
2023-01-20T14:47:02.840Z,85.54
2023-01-20T14:49:36.117Z,85.19
2023-01-20T14:52:04.566Z,85.78
2023-01-20T14:54:45.222Z,86.00
2023-01-20T14:57:28.309Z,86.76
2023-01-20T15:00:05.372Z,85.74
2023-01-20T15:02:34.917Z,86.19
2023-01-20T15:05:02.388Z,85.41
2023-01-20T15:07:29.568Z,85.36
2023-01-20T15:10:09.840Z,86.21
2023-01-20T15:12:47.185Z,85.43
2023-01-20T15:15:27.770Z,85.25
2023-01-20T15:18:23.781Z,85.86
2023-01-20T15:21:15.546Z,85.67
2023-01-20T15:23:45.964Z,86.10
2023-01-20T15:26:31.318Z,86.67
2023-01-20T15:29:04.604Z,86.41
2023-01-20T15:31:33.184Z,86.28
2023-01-20T15:34:00.176Z,85.73
2023-01-20T15:36:30.208Z,85.67
2023-01-20T15:38:57.295Z,86.15
2023-01-20T15:41:26.733Z,86.11
2023-01-20T15:43:53.620Z,85.17
2023-01-20T15:46:20.722Z,84.78
2023-01-20T15:48:47.630Z,85.16
2023-01-20T15:51:20.001Z,85.60
2023-01-20T15:53:56.859Z,85.76
2023-01-20T15:56:27.987Z,85.75
2023-01-20T15:58:55.351Z,85.87
2023-01-20T16:01:25.628Z,85.68
2023-01-20T16:03:55.373Z,86.11
2023-01-20T16:07:40.059Z,86.43
2023-01-20T16:10:07.913Z,86.42
2023-01-20T16:12:34.864Z,86.65
2023-01-20T16:15:01.869Z,86.26
2023-01-20T16:17:31.532Z,86.51
2023-01-20T16:19:58.449Z,86.86
2023-01-20T16:22:25.512Z,86.99
2023-01-20T16:24:52.650Z,86.90
2023-01-20T16:27:21.950Z,87.01
2023-01-20T16:29:49.638Z,87.29
2023-01-20T16:32:18.756Z,87.27
2023-01-20T16:34:47.002Z,87.77
2023-01-20T16:37:14.853Z,87.42
2023-01-20T16:39:42.562Z,88.12
2023-01-20T16:42:14.912Z,87.82
2023-01-20T16:44:57.329Z,86.88
2023-01-20T16:47:30.803Z,86.67
2023-01-20T16:49:58.383Z,86.16
2023-01-20T16:52:25.901Z,86.47
2023-01-20T16:54:53.759Z,86.44
2023-01-20T16:57:20.856Z,86.83
2023-01-20T16:59:47.971Z,85.43
2023-01-20T17:02:20.437Z,85.71
2023-01-20T17:04:47.828Z,85.76
2023-01-20T17:07:36.263Z,86.23
2023-01-20T17:10:05.920Z,85.49
2023-01-20T17:12:35.545Z,86.60
2023-01-20T17:15:06.692Z,86.47
2023-01-20T17:20:32.480Z,86.44
2023-01-20T17:25:40.206Z,86.58
2023-01-20T17:28:07.188Z,87.01
2023-01-20T17:30:34.245Z,86.73
2023-01-20T17:33:02.104Z,85.84
2023-01-20T17:35:30.011Z,85.49
2023-01-20T17:37:57.964Z,86.16
2023-01-20T17:40:25.486Z,86.03
2023-01-20T17:42:53.816Z,85.73
2023-01-20T17:45:20.735Z,85.95
2023-01-20T17:47:59.021Z,86.72
2023-01-20T17:50:29.014Z,88.12
2023-01-20T17:53:03.694Z,88.89
2023-01-20T17:55:30.727Z,90.52
2023-01-20T17:57:57.576Z,90.60
2023-01-20T18:00:24.692Z,91.82
2023-01-20T18:02:54.714Z,91.36
2023-01-20T18:05:21.615Z,92.78
2023-01-20T18:07:50.186Z,96.75
2023-01-20T18:13:23.741Z,100.00
2023-01-20T18:15:52.661Z,100.00
2023-01-20T18:18:19.760Z,100.00
2023-01-20T18:20:46.906Z,100.00
2023-01-20T18:23:14.293Z,100.00
2023-01-20T18:25:53.255Z,100.00
2023-01-20T18:28:27.695Z,100.00
2023-01-20T18:31:10.512Z,100.00
2023-01-20T18:33:39.936Z,100.00
2023-01-20T18:36:14.701Z,100.00
2023-01-20T18:38:46.060Z,100.00
2023-01-20T18:41:14.982Z,100.00
2023-01-20T18:43:42.440Z,100.00
2023-01-20T18:46:10.041Z,100.00
2023-01-20T18:48:49.025Z,100.00
2023-01-20T18:51:20.538Z,100.00
2023-01-20T18:53:55.779Z,100.00
2023-01-20T18:56:23.829Z,100.00
2023-01-20T18:58:50.992Z,100.00
2023-01-20T19:01:25.569Z,100.00
2023-01-20T19:03:53.873Z,100.00
2023-01-20T19:06:24.812Z,100.00
2023-01-20T19:08:52.756Z,100.00
2023-01-20T19:11:23.573Z,100.00
2023-01-20T19:13:54.046Z,100.00
2023-01-20T19:16:27.269Z,100.00
2023-01-20T19:18:59.707Z,100.00
2023-01-20T19:21:27.638Z,100.00
2023-01-20T19:24:01.337Z,100.00
2023-01-20T19:26:29.497Z,100.00
2023-01-20T19:29:05.083Z,100.00
2023-01-20T19:31:38.424Z,100.00
2023-01-20T19:34:08.187Z,100.00
2023-01-20T19:36:36.924Z,100.00
2023-01-20T19:39:06.010Z,100.00
2023-01-20T19:41:35.428Z,100.00
2023-01-20T19:44:05.710Z,100.00
2023-01-20T19:46:35.685Z,100.00
2023-01-20T19:49:08.666Z,100.00
2023-01-20T19:51:38.218Z,100.00
2023-01-20T19:54:06.877Z,100.00
2023-01-20T19:56:36.115Z,100.00
2023-01-20T19:59:03.881Z,100.00
2023-01-20T20:01:34.639Z,100.00
2023-01-20T20:04:22.082Z,100.00
2023-01-20T20:06:49.932Z,100.00
2023-01-20T20:09:24.427Z,100.00
2023-01-20T20:11:51.785Z,100.00
2023-01-20T20:14:22.198Z,100.00
2023-01-20T20:16:54.172Z,100.00
2023-01-20T20:19:23.288Z,100.00
2023-01-20T20:21:55.157Z,100.00
2023-01-20T20:24:25.486Z,100.00
2023-01-20T20:26:52.535Z,100.00
2023-01-20T20:29:19.867Z,100.00
2023-01-20T20:31:47.305Z,100.00
2023-01-20T20:34:17.129Z,100.00
2023-01-20T20:36:44.189Z,100.00
2023-01-20T20:39:15.396Z,100.00
2023-01-20T20:41:43.271Z,100.00
2023-01-20T20:44:11.203Z,100.00
2023-01-20T20:46:41.988Z,100.00
2023-01-20T20:49:14.721Z,100.00
2023-01-20T20:51:41.932Z,100.00
2023-01-20T20:54:11.957Z,100.00
2023-01-20T20:56:38.945Z,100.00
2023-01-20T20:59:05.727Z,100.00
2023-01-20T21:01:34.594Z,100.00
2023-01-20T21:04:03.284Z,100.00
2023-01-20T21:06:42.627Z,100.00
2023-01-20T21:09:09.900Z,100.00
2023-01-20T21:11:38.359Z,100.00
2023-01-20T21:14:12.695Z,100.00
2023-01-20T21:16:40.586Z,100.00
2023-01-20T21:19:08.226Z,100.00
2023-01-20T21:21:35.385Z,100.00
2023-01-20T21:24:02.280Z,100.00
2023-01-20T21:26:30.734Z,100.00
2023-01-20T21:29:01.874Z,100.00
2023-01-20T21:31:31.459Z,100.00
2023-01-20T21:33:59.211Z,100.00
2023-01-20T21:36:27.114Z,100.00
2023-01-20T21:38:54.585Z,100.00
2023-01-20T21:41:21.692Z,100.00
2023-01-20T21:44:07.583Z,100.00
2023-01-20T21:46:40.253Z,100.00
2023-01-20T21:49:27.239Z,100.00
2023-01-20T21:52:13.500Z,100.00
2023-01-20T21:54:41.576Z,100.00
2023-01-20T21:57:10.329Z,100.00
2023-01-20T21:59:37.798Z,100.00
2023-01-20T22:02:05.193Z,100.00
2023-01-20T22:04:32.755Z,100.00
2023-01-20T22:06:59.964Z,100.00
2023-01-20T22:09:26.933Z,100.00
2023-01-20T22:11:53.817Z,100.00
2023-01-20T22:14:20.649Z,100.00
2023-01-20T22:16:47.448Z,100.00
2023-01-20T22:19:15.114Z,100.00
2023-01-20T22:21:42.225Z,100.00
2023-01-20T22:24:11.176Z,100.00
2023-01-20T22:26:38.317Z,100.00
2023-01-20T22:29:05.191Z,100.00
2023-01-20T22:31:34.193Z,100.00
2023-01-20T22:34:05.266Z,100.00
2023-01-20T22:36:33.396Z,100.00
2023-01-20T22:39:00.511Z,100.00
2023-01-20T22:41:27.581Z,100.00
2023-01-20T22:43:55.876Z,100.00
2023-01-20T22:46:25.639Z,100.00
2023-01-20T22:48:52.759Z,100.00
2023-01-20T22:51:21.838Z,100.00
2023-01-20T22:53:49.019Z,100.00
2023-01-20T22:56:21.754Z,100.00
2023-01-20T22:58:48.798Z,100.00
2023-01-20T23:01:18.893Z,100.00
2023-01-20T23:03:46.650Z,100.00
2023-01-20T23:06:14.651Z,100.00
2023-01-20T23:08:42.128Z,100.00
2023-01-20T23:11:14.828Z,100.00
2023-01-20T23:13:42.304Z,100.00
2023-01-20T23:16:15.008Z,100.00
2023-01-20T23:18:41.922Z,100.00
2023-01-20T23:21:08.776Z,100.00
2023-01-20T23:23:35.692Z,100.00
2023-01-20T23:26:09.803Z,100.00
2023-01-20T23:28:36.712Z,100.00
2023-01-20T23:31:06.622Z,100.00
2023-01-20T23:33:33.856Z,100.00
2023-01-20T23:36:15.585Z,100.00
2023-01-20T23:38:43.883Z,100.00
2023-01-20T23:41:11.969Z,100.00
2023-01-20T23:43:39.103Z,100.00
2023-01-20T23:46:06.860Z,100.00
2023-01-20T23:48:34.759Z,100.00
2023-01-20T23:51:02.644Z,100.00
2023-01-20T23:53:31.929Z,100.00
2023-01-20T23:56:12.415Z,100.00
2023-01-20T23:58:39.726Z,100.00
